Time;durP1;ratioP1;P1;durP2;ratioP2;P2;SDS_P1;SDS_P2;PMS_P1;PMS_P2;Temp;Humidity;BMP_temperature;BMP_pressure;BME280_temperature;BME280_humidity;BME280_pressure;Samples;Min_cycle;Max_cycle;Signal;HPM_P1;HPM_P2
2023/11/23 00:01:07;;;;;;;21.30;10.38;;;7.50;99.90;;;;;;4976255;28;87516;-81
2023/11/23 00:15:16;;;;;;;21.52;10.07;;;7.60;99.90;;;;;;4948775;28;86097;-80
2023/11/23 00:17:47;;;;;;;24.88;10.52;;;7.60;99.90;;;;;;4936193;28;88981;-80
2023/11/23 00:20:13;;;;;;;23.15;10.18;;;7.60;99.90;;;;;;4936467;28;89439;-81
2023/11/23 00:22:38;;;;;;;19.70;9.50;;;7.70;99.90;;;;;;4937016;28;86403;-82
2023/11/23 00:25:13;;;;;;;21.45;9.57;;;7.60;99.90;;;;;;4936313;28;87305;-81
2023/11/23 00:27:59;;;;;;;22.63;10.40;;;7.70;99.90;;;;;;4947891;28;89714;-80
2023/11/23 00:30:25;;;;;;;22.30;10.07;;;7.70;99.90;;;;;;4930108;28;89904;-80
2023/11/23 00:33:06;;;;;;;20.05;9.75;;;7.70;99.90;;;;;;4935873;28;86569;-80
2023/11/23 00:35:32;;;;;;;26.25;10.60;;;7.70;99.90;;;;;;4932398;28;85742;-81
2023/11/23 00:41:20;;;;;;;21.20;10.73;;;7.80;99.90;;;;;;4936934;28;85412;-80
2023/11/23 00:43:45;;;;;;;32.70;10.55;;;7.80;99.90;;;;;;4949440;28;85461;-80
2023/11/23 00:46:18;;;;;;;28.27;10.88;;;7.80;99.90;;;;;;4942501;28;85907;-81
2023/11/23 00:48:44;;;;;;;22.08;10.88;;;7.80;99.90;;;;;;4930048;28;90680;-81
2023/11/23 00:55:05;;;;;;;25.85;10.35;;;7.80;99.90;;;;;;4950140;28;85739;-80
2023/11/23 00:57:33;;;;;;;27.17;11.27;;;7.90;99.90;;;;;;4950376;28;85638;-81
2023/11/23 01:03:26;;;;;;;25.83;11.20;;;7.90;99.90;;;;;;4928797;28;85485;-80
2023/11/23 01:09:15;;;;;;;27.23;10.20;;;7.90;99.90;;;;;;4932630;28;85798;-81
2023/11/23 01:11:54;;;;;;;21.27;11.07;;;7.90;99.90;;;;;;4931922;28;87025;-80
2023/11/23 01:20:51;;;;;;;25.75;11.43;;;7.90;99.90;;;;;;4952175;28;87735;-81
2023/11/23 01:23:17;;;;;;;21.60;11.77;;;7.90;99.90;;;;;;4973322;28;87366;-81
2023/11/23 01:29:18;;;;;;;25.38;11.50;;;7.90;99.90;;;;;;4957819;28;85211;-81
2023/11/23 01:31:44;;;;;;;25.23;11.00;;;7.90;99.90;;;;;;4945446;28;87029;-82
2023/11/23 01:34:10;;;;;;;25.50;11.90;;;7.90;99.90;;;;;;4979624;28;85756;-81
2023/11/23 01:36:43;;;;;;;26.90;12.65;;;7.90;99.90;;;;;;4983744;28;86049;-80
2023/11/23 01:39:09;;;;;;;;;;;7.90;99.90;;;;;;4957022;28;86081;-80
2023/11/23 01:41:35;;;;;;;28.10;13.40;;;7.90;99.90;;;;;;4958563;28;86061;-81
2023/11/23 01:44:11;;;;;;;28.42;12.73;;;7.90;99.90;;;;;;4965071;28;88904;-81
2023/11/23 01:47:19;;;;;;;26.70;13.07;;;7.90;99.90;;;;;;4939904;28;90409;-82
2023/11/23 01:49:46;;;;;;;25.75;12.10;;;8.00;99.90;;;;;;4959375;28;85473;-81
2023/11/23 01:52:12;;;;;;;29.52;13.23;;;8.00;99.90;;;;;;4959235;28;85326;-81
2023/11/23 01:54:38;;;;;;;30.75;11.50;;;8.00;99.90;;;;;;4958089;28;90565;-80
2023/11/23 01:57:06;;;;;;;30.10;13.25;;;8.00;99.90;;;;;;4963770;28;89940;-81
2023/11/23 01:59:34;;;;;;;28.80;13.60;;;8.00;99.90;;;;;;4958881;28;86460;-81
2023/11/23 02:02:14;;;;;;;30.35;12.68;;;8.00;99.90;;;;;;4975573;28;85359;-81
2023/11/23 02:04:51;;;;;;;27.30;13.35;;;8.00;99.90;;;;;;4955049;28;90509;-81
2023/11/23 02:07:17;;;;;;;28.83;13.35;;;8.00;99.90;;;;;;4959972;28;88732;-81
2023/11/23 02:10:20;;;;;;;29.33;13.05;;;8.00;99.90;;;;;;4957568;28;86367;-81
2023/11/23 02:13:38;;;;;;;26.17;12.40;;;7.90;99.90;;;;;;4950001;28;86792;-80
2023/11/23 02:16:04;;;;;;;28.85;12.38;;;8.00;99.90;;;;;;4959276;28;87219;-80
2023/11/23 02:18:36;;;;;;;28.80;12.98;;;8.00;99.90;;;;;;4957492;28;86810;-81
2023/11/23 02:32:46;;;;;;;29.33;13.38;;;8.00;99.90;;;;;;4975019;28;86723;-81
2023/11/23 02:35:38;;;;;;;28.73;13.77;;;8.00;99.90;;;;;;4983321;28;85391;-81
2023/11/23 02:38:26;;;;;;;30.77;13.60;;;8.00;99.90;;;;;;4956781;28;87545;-81
2023/11/23 02:40:52;;;;;;;33.33;14.45;;;8.00;99.90;;;;;;4982519;28;85594;-81
2023/11/23 02:46:40;;;;;;;32.83;15.05;;;8.00;99.90;;;;;;4990252;28;85505;-80
2023/11/23 02:49:06;;;;;;;31.17;15.23;;;8.00;99.90;;;;;;4980659;28;87425;-81
2023/11/23 02:51:32;;;;;;;31.77;14.98;;;7.90;99.90;;;;;;4980568;28;89755;-81
2023/11/23 02:54:06;;;;;;;34.40;14.68;;;8.00;99.90;;;;;;4980281;28;86456;-81
2023/11/23 02:56:32;;;;;;;33.30;14.20;;;8.00;99.90;;;;;;4980261;28;85835;-81
2023/11/23 02:58:58;;;;;;;29.95;14.70;;;8.00;99.90;;;;;;4981508;28;88929;-81
2023/11/23 03:01:41;;;;;;;35.42;14.82;;;8.00;99.90;;;;;;4974500;28;87237;-81
2023/11/23 03:04:09;;;;;;;34.80;15.68;;;8.00;99.90;;;;;;4993309;28;85721;-81
2023/11/23 03:06:35;;;;;;;29.70;15.18;;;8.00;99.90;;;;;;4961394;28;86449;-81
2023/11/23 03:09:00;;;;;;;31.30;15.68;;;8.00;99.90;;;;;;4957858;28;87697;-81
2023/11/23 03:11:40;;;;;;;36.25;16.42;;;8.00;99.90;;;;;;4971944;28;93585;-81
2023/11/23 03:18:00;;;;;;;36.80;17.00;;;8.10;99.90;;;;;;4985451;28;85519;-81
2023/11/23 03:20:45;;;;;;;33.20;16.63;;;8.10;99.90;;;;;;4994192;28;94419;-81
2023/11/23 03:23:58;;;;;;;39.22;16.33;;;8.10;99.90;;;;;;4977824;28;90292;-81
2023/11/23 03:27:17;;;;;;;43.67;16.77;;;8.10;99.90;;;;;;4963159;28;91636;-81
2023/11/23 09:05:32;;;;;;;22.35;9.73;;;10.10;99.90;;;;;;4930862;28;89101;-76
2023/11/23 09:07:57;;;;;;;22.75;10.00;;;10.20;99.90;;;;;;4924830;28;90480;-76
2023/11/23 09:10:24;;;;;;;21.25;9.77;;;10.20;99.90;;;;;;4908008;28;88075;-77
2023/11/23 09:12:50;;;;;;;19.00;9.32;;;10.30;99.90;;;;;;4922486;28;88058;-77
2023/11/23 09:15:16;;;;;;;18.63;9.00;;;10.30;99.90;;;;;;4904700;28;92578;-77
2023/11/23 09:17:42;;;;;;;20.95;9.95;;;10.30;99.90;;;;;;4917168;28;92363;-77
2023/11/23 09:20:08;;;;;;;18.88;9.35;;;10.40;99.90;;;;;;4921798;28;87547;-77
2023/11/23 09:22:35;;;;;;;21.50;10.07;;;10.40;99.90;;;;;;4936381;28;88295;-78
2023/11/23 09:25:06;;;;;;;19.50;9.40;;;10.40;99.90;;;;;;4913554;28;89503;-75
2023/11/23 09:27:32;;;;;;;17.15;8.85;;;10.40;99.90;;;;;;4937738;28;87880;-78
2023/11/23 09:29:58;;;;;;;19.13;9.10;;;10.40;99.90;;;;;;4918649;28;87634;-78
2023/11/23 09:32:24;;;;;;;17.52;8.70;;;10.50;99.90;;;;;;4936051;28;87268;-80
2023/11/23 09:34:50;;;;;;;20.20;8.77;;;10.50;99.90;;;;;;4930112;28;88168;-80
2023/11/23 09:37:16;;;;;;;17.50;9.57;;;10.50;99.90;;;;;;4906650;28;91494;-79
2023/11/23 09:39:44;;;;;;;18.45;9.30;;;10.50;99.90;;;;;;4918909;28;88908;-78
2023/11/23 09:42:15;;;;;;;16.38;8.23;;;10.60;99.90;;;;;;4920866;28;87809;-78
2023/11/23 09:44:41;;;;;;;19.48;8.30;;;10.60;99.90;;;;;;4920691;28;91379;-80
2023/11/23 09:47:08;;;;;;;14.73;8.15;;;10.60;99.90;;;;;;4938366;28;87836;-76
2023/11/23 09:49:35;;;;;;;20.75;8.57;;;10.70;99.90;;;;;;4921167;28;87819;-78
2023/11/23 09:52:01;;;;;;;16.08;7.85;;;10.70;99.90;;;;;;4937938;28;88003;-76
2023/11/23 09:54:32;;;;;;;19.83;8.65;;;10.70;99.90;;;;;;4926856;28;91348;-77
2023/11/23 09:56:58;;;;;;;15.63;7.97;;;10.80;99.90;;;;;;4915950;28;89826;-76
2023/11/23 09:59:25;;;;;;;16.10;8.45;;;10.80;99.90;;;;;;4938327;28;88087;-76
2023/11/23 10:01:54;;;;;;;14.55;8.00;;;10.90;99.90;;;;;;4936432;28;87552;-77
2023/11/23 10:04:21;;;;;;;21.45;8.48;;;10.90;99.90;;;;;;4935737;28;89138;-76
2023/11/23 10:06:46;;;;;;;16.45;7.40;;;11.00;99.90;;;;;;4934872;28;89198;-76
2023/11/23 10:09:16;;;;;;;16.08;7.40;;;11.00;99.90;;;;;;4931930;28;87995;-76
2023/11/23 10:11:42;;;;;;;12.98;7.35;;;11.00;99.90;;;;;;4937648;28;87421;-77
2023/11/23 10:14:08;;;;;;;14.80;7.20;;;11.10;99.90;;;;;;4939199;28;88055;-76
2023/11/23 10:16:35;;;;;;;13.60;7.22;;;11.10;99.90;;;;;;4920120;28;91374;-78
2023/11/23 10:19:00;;;;;;;12.65;6.50;;;11.20;99.90;;;;;;4928879;28;87649;-77
2023/11/23 10:21:28;;;;;;;17.20;7.82;;;11.30;99.90;;;;;;4920809;28;89136;-79
2023/11/23 10:23:54;;;;;;;13.57;6.60;;;11.30;99.90;;;;;;4936214;28;88355;-77
2023/11/23 10:26:20;;;;;;;15.50;7.10;;;11.40;99.90;;;;;;4941303;28;88156;-78
2023/11/23 10:28:46;;;;;;;15.95;7.38;;;11.50;99.90;;;;;;4926112;28;88662;-76
2023/11/23 10:31:14;;;;;;;12.95;6.32;;;11.60;99.90;;;;;;4950472;28;87823;-78
2023/11/23 10:33:41;;;;;;;12.48;6.78;;;11.60;99.90;;;;;;4939783;28;90137;-76
2023/11/23 10:36:08;;;;;;;13.57;6.97;;;11.60;99.90;;;;;;4927215;28;89360;-77
2023/11/23 10:41:59;;;;;;;9.50;6.35;;;11.60;99.90;;;;;;4943945;28;87613;-76
2023/11/23 10:44:28;;;;;;;15.55;6.82;;;11.70;99.90;;;;;;4941300;28;88695;-78
2023/11/23 10:46:59;;;;;;;18.17;6.13;;;11.70;99.90;;;;;;4932545;28;90013;-77
2023/11/23 10:49:35;;;;;;;15.77;7.53;;;11.80;99.90;;;;;;4946192;28;87019;-81
2023/11/23 10:52:02;;;;;;;13.05;7.05;;;11.80;99.90;;;;;;4921082;28;87572;-79
2023/11/23 10:58:01;;;;;;;16.05;6.55;;;11.80;99.90;;;;;;4949533;28;87938;-79
2023/11/23 11:00:28;;;;;;;10.32;6.32;;;11.80;99.90;;;;;;4956011;28;87801;-80
2023/11/23 11:06:38;;;;;;;12.88;6.50;;;11.80;99.90;;;;;;4961497;28;87088;-78
2023/11/23 11:09:23;;;;;;;13.02;6.63;;;11.80;99.90;;;;;;4907628;28;89832;-79
2023/11/23 11:15:19;;;;;;;10.23;5.55;;;11.90;99.90;;;;;;4937751;28;86389;-78
2023/11/23 11:17:46;;;;;;;10.40;5.10;;;11.90;99.90;;;;;;4907552;28;90040;-79
2023/11/23 11:23:45;;;;;;;12.18;5.45;;;12.00;99.90;;;;;;4942315;28;88060;-77
2023/11/23 11:26:19;;;;;;;9.13;5.15;;;12.00;99.90;;;;;;4950195;28;87086;-78
2023/11/23 11:29:02;;;;;;;10.32;5.30;;;12.00;99.90;;;;;;4904337;28;91618;-76
2023/11/23 11:31:29;;;;;;;8.63;4.72;;;12.00;99.90;;;;;;4913376;28;87740;-78
2023/11/23 11:33:55;;;;;;;11.20;5.72;;;12.10;99.90;;;;;;4930615;28;87972;-78
2023/11/23 11:36:22;;;;;;;9.07;4.82;;;12.20;99.90;;;;;;4914847;28;90665;-77
2023/11/23 11:38:55;;;;;;;8.13;4.40;;;12.20;99.90;;;;;;4929189;28;88149;-78
2023/11/23 11:41:24;;;;;;;10.98;4.32;;;12.20;99.90;;;;;;4910501;28;89777;-77
2023/11/23 11:43:49;;;;;;;6.85;4.28;;;12.20;99.90;;;;;;4928566;28;89117;-79
2023/11/23 11:46:15;;;;;;;11.48;3.63;;;12.30;99.90;;;;;;4912706;28;91922;-77
2023/11/23 11:48:41;;;;;;;6.80;3.80;;;12.30;99.90;;;;;;4932205;28;89517;-76
2023/11/23 11:51:08;;;;;;;8.77;3.50;;;12.30;99.90;;;;;;4926085;28;90267;-76
2023/11/23 11:53:34;;;;;;;12.68;4.18;;;12.30;99.90;;;;;;4912115;28;88141;-78
2023/11/23 11:56:00;;;;;;;8.32;3.30;;;12.30;99.90;;;;;;4910035;28;88607;-78
2023/11/23 11:58:26;;;;;;;8.55;2.83;;;12.30;99.90;;;;;;4911099;28;90175;-76
2023/11/23 12:00:53;;;;;;;7.80;3.13;;;12.30;99.90;;;;;;4933549;28;88495;-76
2023/11/23 12:03:19;;;;;;;7.47;3.25;;;12.40;99.90;;;;;;4930421;28;87860;-76
2023/11/23 12:05:45;;;;;;;6.47;2.97;;;12.40;99.90;;;;;;4911714;28;88864;-78
2023/11/23 12:08:11;;;;;;;8.85;3.30;;;12.40;99.90;;;;;;4932953;28;88414;-76
2023/11/23 12:10:41;;;;;;;10.75;3.20;;;12.40;99.90;;;;;;4910227;28;92354;-78
2023/11/23 12:13:14;;;;;;;7.60;3.30;;;12.50;99.90;;;;;;4929030;28;88373;-78
2023/11/23 12:15:44;;;;;;;5.95;3.10;;;12.50;99.90;;;;;;4930741;28;87981;-77
2023/11/23 12:18:13;;;;;;;7.63;2.67;;;12.50;99.90;;;;;;4910970;28;91637;-75
2023/11/23 12:20:39;;;;;;;7.00;3.13;;;12.50;99.90;;;;;;4911139;28;91379;-76
2023/11/23 12:23:06;;;;;;;11.27;2.65;;;12.50;99.90;;;;;;4913955;28;87745;-78
2023/11/23 12:25:35;;;;;;;7.35;2.78;;;12.50;99.90;;;;;;4933484;28;87858;-77
2023/11/23 12:28:02;;;;;;;8.85;3.08;;;12.50;99.90;;;;;;4931143;28;88127;-78
2023/11/23 12:30:29;;;;;;;7.25;2.60;;;12.40;99.90;;;;;;4914188;28;91599;-76
2023/11/23 12:32:56;;;;;;;7.82;2.60;;;12.40;99.90;;;;;;4931014;28;88057;-77
2023/11/23 12:35:22;;;;;;;5.50;2.92;;;12.50;99.90;;;;;;4916250;28;90550;-77
2023/11/23 12:37:48;;;;;;;8.57;2.78;;;12.40;99.90;;;;;;4910106;28;91119;-77
2023/11/23 12:40:14;;;;;;;10.15;3.13;;;12.40;99.90;;;;;;4919265;28;92109;-78
2023/11/23 12:42:40;;;;;;;5.43;2.85;;;12.40;99.90;;;;;;4913497;28;88265;-77
2023/11/23 12:45:08;;;;;;;8.75;2.65;;;12.30;99.90;;;;;;4926855;28;88507;-77
2023/11/23 12:47:37;;;;;;;9.82;2.72;;;12.30;99.90;;;;;;4908756;28;91743;-77
2023/11/23 12:50:13;;;;;;;6.65;2.80;;;12.30;99.90;;;;;;4911266;28;88756;-76
2023/11/23 12:52:39;;;;;;;7.13;2.72;;;12.30;99.90;;;;;;4932396;28;88146;-77
2023/11/23 12:55:06;;;;;;;6.47;2.50;;;12.40;99.90;;;;;;4908430;28;90524;-76
2023/11/23 12:57:32;;;;;;;9.18;2.60;;;12.30;99.90;;;;;;4907629;28;92947;-77
2023/11/23 12:59:59;;;;;;;8.20;3.00;;;12.40;99.90;;;;;;4931141;28;88431;-77
2023/11/23 13:02:24;;;;;;;8.02;2.35;;;12.30;99.90;;;;;;4909878;28;89023;-77
2023/11/23 13:04:50;;;;;;;8.73;2.78;;;12.30;99.90;;;;;;4910716;28;90532;-77
2023/11/23 13:07:16;;;;;;;9.02;2.92;;;12.30;99.90;;;;;;4910719;28;91079;-78
2023/11/23 13:09:41;;;;;;;5.13;2.17;;;12.30;99.90;;;;;;4909591;28;91598;-75
2023/11/23 13:12:09;;;;;;;7.32;2.72;;;12.30;99.90;;;;;;4908894;28;87609;-77
2023/11/23 13:14:35;;;;;;;6.50;2.58;;;12.30;99.90;;;;;;4909414;28;89021;-77
2023/11/23 13:17:00;;;;;;;10.68;2.60;;;12.40;99.90;;;;;;4931345;28;89220;-77
2023/11/23 13:19:26;;;;;;;8.63;2.45;;;12.30;99.90;;;;;;4928550;28;87817;-76
2023/11/23 13:21:53;;;;;;;6.32;2.28;;;12.40;99.90;;;;;;4909483;28;88092;-76
2023/11/23 13:24:20;;;;;;;4.95;2.22;;;12.40;99.90;;;;;;4912503;28;90851;-74
2023/11/23 13:26:48;;;;;;;11.82;2.97;;;12.40;99.90;;;;;;4912976;28;91570;-78
2023/11/23 13:29:13;;;;;;;10.70;2.50;;;12.40;99.90;;;;;;4932335;28;89517;-75
2023/11/23 13:31:39;;;;;;;8.20;2.90;;;12.40;99.90;;;;;;4928086;28;87628;-75
2023/11/23 13:34:06;;;;;;;8.93;2.65;;;12.40;99.90;;;;;;4925000;28;89938;-75
2023/11/23 13:36:34;;;;;;;8.43;2.20;;;12.40;99.90;;;;;;4911842;28;89671;-74
2023/11/23 13:39:01;;;;;;;7.40;2.47;;;12.40;99.90;;;;;;4908693;28;90362;-76
2023/11/23 13:41:27;;;;;;;5.13;2.63;;;12.40;99.90;;;;;;4932748;28;87587;-75
2023/11/23 13:43:56;;;;;;;5.43;2.15;;;12.40;99.90;;;;;;4910402;28;87654;-76
2023/11/23 13:46:22;;;;;;;5.22;2.00;;;12.40;99.90;;;;;;4930799;28;88672;-74
2023/11/23 13:48:49;;;;;;;11.00;2.40;;;12.50;99.90;;;;;;4927335;28;91164;-74
2023/11/23 13:51:17;;;;;;;8.55;2.30;;;12.50;99.90;;;;;;4913578;28;89006;-73
2023/11/23 13:53:47;;;;;;;7.22;1.83;;;12.50;99.90;;;;;;4908914;28;88964;-74
2023/11/23 13:56:14;;;;;;;7.35;2.30;;;12.50;99.90;;;;;;4929804;28;89682;-76
2023/11/23 13:58:40;;;;;;;5.50;1.90;;;12.50;99.90;;;;;;4913333;28;89530;-75
2023/11/23 14:01:06;;;;;;;5.60;2.00;;;12.50;99.90;;;;;;4893784;28;87501;-76
2023/11/23 14:03:34;;;;;;;7.00;2.15;;;12.50;99.90;;;;;;4911114;28;87806;-75
2023/11/23 14:06:02;;;;;;;4.90;2.35;;;12.50;99.90;;;;;;4901230;28;88730;-75
2023/11/23 14:08:27;;;;;;;6.43;2.38;;;12.50;99.90;;;;;;4910849;28;88298;-74
2023/11/23 14:10:56;;;;;;;8.45;2.05;;;12.50;99.90;;;;;;4891186;28;87833;-75
2023/11/23 14:13:22;;;;;;;7.35;1.98;;;12.50;99.90;;;;;;4910242;28;90558;-76
2023/11/23 14:15:48;;;;;;;8.13;2.15;;;12.50;99.90;;;;;;4893461;28;91347;-75
2023/11/23 14:18:14;;;;;;;7.43;2.20;;;12.50;99.90;;;;;;4913085;28;88956;-76
2023/11/23 14:20:43;;;;;;;8.32;2.10;;;12.50;99.90;;;;;;4890896;28;88304;-77
2023/11/23 14:23:12;;;;;;;6.28;2.35;;;12.50;99.90;;;;;;4911626;28;88077;-74
2023/11/23 14:25:38;;;;;;;9.50;2.40;;;12.50;99.90;;;;;;4885612;28;91706;-75
2023/11/23 14:28:04;;;;;;;9.95;1.85;;;12.50;99.90;;;;;;4893628;28;89720;-75
2023/11/23 14:30:31;;;;;;;5.93;2.60;;;12.50;99.90;;;;;;4895596;28;88373;-75
2023/11/23 14:32:57;;;;;;;8.02;2.22;;;12.50;99.90;;;;;;4913763;28;87218;-75
2023/11/23 14:35:24;;;;;;;7.38;1.73;;;12.50;99.90;;;;;;4914434;28;88263;-75
2023/11/23 14:37:50;;;;;;;6.25;1.80;;;12.50;99.90;;;;;;4896378;28;89760;-75
2023/11/23 14:40:18;;;;;;;8.90;1.95;;;12.50;99.90;;;;;;4894220;28;88541;-74
2023/11/23 14:42:44;;;;;;;7.45;2.00;;;12.50;99.90;;;;;;4893452;28;89097;-75
2023/11/23 14:45:10;;;;;;;10.93;2.15;;;12.50;99.90;;;;;;4913253;28;87963;-75
2023/11/23 14:47:37;;;;;;;5.32;2.20;;;12.60;99.90;;;;;;4891196;28;87904;-75
2023/11/23 14:50:08;;;;;;;6.55;2.67;;;12.60;99.90;;;;;;4910389;28;88150;-74
2023/11/23 14:52:34;;;;;;;5.35;2.13;;;12.70;99.90;;;;;;4892818;28;89268;-75
2023/11/23 14:55:00;;;;;;;7.75;2.30;;;12.80;99.90;;;;;;4912626;28;88158;-74
2023/11/23 14:57:28;;;;;;;7.07;2.28;;;12.80;99.90;;;;;;4890612;28;88654;-75
2023/11/23 14:59:55;;;;;;;6.50;2.60;;;12.90;99.90;;;;;;4891576;28;87758;-76
2023/11/23 15:02:21;;;;;;;6.93;1.98;;;12.90;99.90;;;;;;4913615;28;87795;-76
2023/11/23 15:04:48;;;;;;;8.13;2.28;;;12.80;99.90;;;;;;4887656;28;91226;-75
2023/11/23 15:07:14;;;;;;;5.93;1.98;;;12.80;99.90;;;;;;4888279;28;92249;-76
2023/11/23 15:09:41;;;;;;;7.80;2.00;;;12.70;99.90;;;;;;4907442;28;88002;-75
2023/11/23 15:12:08;;;;;;;6.82;2.03;;;12.70;99.90;;;;;;4884693;28;89215;-75
2023/11/23 15:14:34;;;;;;;7.88;1.60;;;12.70;99.90;;;;;;4888552;28;90260;-76
2023/11/23 15:17:00;;;;;;;6.30;1.92;;;12.60;99.90;;;;;;4886954;28;90103;-74
2023/11/23 15:19:26;;;;;;;8.15;1.98;;;12.60;99.90;;;;;;4911519;28;88098;-78
2023/11/23 15:21:51;;;;;;;7.10;2.00;;;12.50;99.90;;;;;;4889444;28;87425;-75
2023/11/23 15:24:17;;;;;;;8.77;2.00;;;12.50;99.90;;;;;;4909386;28;88336;-75
2023/11/23 15:26:46;;;;;;;8.57;2.17;;;12.50;99.90;;;;;;4912771;28;88094;-75
2023/11/23 15:29:12;;;;;;;10.07;2.22;;;12.50;99.90;;;;;;4894768;28;89179;-74
2023/11/23 15:31:39;;;;;;;6.75;2.10;;;12.40;99.90;;;;;;4898111;28;91506;-75
2023/11/23 15:34:05;;;;;;;7.75;2.10;;;12.40;99.90;;;;;;4894052;28;92109;-76
2023/11/23 15:36:34;;;;;;;7.15;2.33;;;12.40;99.90;;;;;;4910016;28;88504;-75
2023/11/23 15:39:03;;;;;;;4.15;1.58;;;12.40;99.90;;;;;;4907624;28;88664;-76
2023/11/23 15:41:29;;;;;;;6.88;2.33;;;12.40;99.90;;;;;;4888439;28;88922;-76
2023/11/23 15:43:55;;;;;;;8.98;1.73;;;12.30;99.90;;;;;;4923899;28;89471;-75
2023/11/23 15:46:25;;;;;;;7.32;1.50;;;12.30;99.90;;;;;;4910954;28;86769;-75
2023/11/23 15:48:51;;;;;;;8.73;2.13;;;12.30;99.90;;;;;;4908194;28;87830;-74
2023/11/23 15:51:17;;;;;;;14.20;2.47;;;12.20;99.90;;;;;;4893028;28;89157;-75
2023/11/23 15:53:43;;;;;;;6.30;2.15;;;12.20;99.90;;;;;;4889978;28;92294;-77
2023/11/23 15:56:16;;;;;;;9.18;2.25;;;12.20;99.90;;;;;;4892887;28;92004;-74
2023/11/23 15:58:43;;;;;;;6.43;2.00;;;12.10;99.90;;;;;;4891231;28;87889;-76
2023/11/23 16:01:09;;;;;;;6.43;1.88;;;12.10;99.90;;;;;;4892468;28;88816;-74
2023/11/23 16:03:35;;;;;;;10.60;2.33;;;12.00;99.90;;;;;;4891625;28;89521;-76
2023/11/23 16:06:01;;;;;;;7.82;2.03;;;12.00;99.90;;;;;;4891975;28;90888;-74
2023/11/23 16:08:26;;;;;;;8.05;2.42;;;11.90;99.90;;;;;;4904317;28;88264;-74
2023/11/23 16:10:52;;;;;;;7.28;2.20;;;11.90;99.90;;;;;;4903595;28;87165;-75
2023/11/23 16:13:20;;;;;;;8.45;2.80;;;11.90;99.90;;;;;;4908690;28;90315;-75
2023/11/23 16:15:50;;;;;;;9.07;2.53;;;11.90;99.90;;;;;;4907614;28;88407;-74
2023/11/23 16:18:16;;;;;;;5.88;2.42;;;11.90;99.90;;;;;;4889815;28;88569;-76
2023/11/23 16:20:45;;;;;;;4.75;2.67;;;11.90;99.90;;;;;;4907716;28;89457;-76
2023/11/23 16:23:11;;;;;;;8.23;2.75;;;11.80;99.90;;;;;;4911200;28;88244;-75
2023/11/23 16:25:37;;;;;;;7.95;2.95;;;11.80;99.90;;;;;;4905758;28;87796;-75
2023/11/23 16:28:04;;;;;;;7.32;3.03;;;11.80;99.90;;;;;;4888939;28;87817;-75
2023/11/23 16:30:30;;;;;;;9.23;3.17;;;11.70;99.90;;;;;;4907241;28;87677;-76
2023/11/23 16:32:56;;;;;;;6.40;2.35;;;11.70;99.90;;;;;;4906017;28;89759;-76
2023/11/23 16:35:21;;;;;;;9.85;2.95;;;11.70;99.90;;;;;;4888189;28;89129;-76
2023/11/23 16:37:47;;;;;;;13.77;3.00;;;11.70;99.90;;;;;;4908294;28;87680;-75
2023/11/23 16:40:14;;;;;;;11.32;2.78;;;11.60;99.90;;;;;;4884735;28;91169;-76
2023/11/23 16:42:43;;;;;;;7.35;2.22;;;11.60;99.90;;;;;;4886029;28;90903;-75
2023/11/23 16:45:11;;;;;;;5.68;3.17;;;11.60;99.90;;;;;;4887051;28;90537;-75
2023/11/23 16:47:37;;;;;;;8.93;3.10;;;11.60;99.90;;;;;;4887243;28;87762;-76
2023/11/23 16:50:03;;;;;;;12.27;3.10;;;11.50;99.90;;;;;;4903033;28;87724;-76
2023/11/23 16:52:28;;;;;;;10.32;3.20;;;11.50;99.90;;;;;;4884298;28;91405;-76
2023/11/23 16:54:55;;;;;;;10.98;3.00;;;11.50;99.90;;;;;;4885800;28;92142;-77
2023/11/23 16:57:21;;;;;;;6.32;2.50;;;11.50;99.90;;;;;;4906395;28;88036;-77
2023/11/23 16:59:47;;;;;;;10.00;2.97;;;11.50;99.90;;;;;;4905874;28;87902;-77
2023/11/23 17:02:14;;;;;;;11.70;3.22;;;11.50;99.90;;;;;;4890375;28;91760;-77
2023/11/23 17:04:41;;;;;;;5.93;3.22;;;11.50;99.90;;;;;;4905657;28;89126;-77
2023/11/23 17:07:08;;;;;;;6.35;2.67;;;11.50;99.90;;;;;;4890687;28;88431;-76
2023/11/23 17:09:34;;;;;;;12.27;3.28;;;11.50;99.90;;;;;;4906248;28;88296;-76
2023/11/23 17:12:00;;;;;;;10.10;4.18;;;11.50;99.90;;;;;;4908221;28;88649;-76
2023/11/23 17:14:26;;;;;;;9.25;3.53;;;11.50;99.90;;;;;;4888909;28;92654;-76
2023/11/23 17:16:54;;;;;;;13.43;3.67;;;11.40;99.90;;;;;;4909727;28;88178;-76
2023/11/23 17:19:23;;;;;;;8.30;3.10;;;11.50;99.90;;;;;;4884068;28;89528;-76
2023/11/23 17:21:50;;;;;;;6.13;3.17;;;11.50;99.90;;;;;;4899025;28;88357;-76
2023/11/23 17:24:16;;;;;;;10.55;3.60;;;11.50;99.90;;;;;;4889070;28;91774;-76
2023/11/23 17:26:42;;;;;;;11.18;3.90;;;11.50;99.90;;;;;;4904167;28;87669;-76
2023/11/23 17:29:11;;;;;;;7.13;3.22;;;11.50;99.90;;;;;;4917808;28;88699;-76
2023/11/23 17:31:41;;;;;;;6.43;3.42;;;11.50;99.90;;;;;;4901408;28;89343;-78
2023/11/23 17:34:07;;;;;;;9.00;3.80;;;11.50;99.90;;;;;;4908808;28;89854;-76
2023/11/23 17:36:33;;;;;;;7.03;3.30;;;11.50;99.90;;;;;;4887389;28;87983;-77
2023/11/23 17:38:59;;;;;;;10.98;4.22;;;11.50;99.90;;;;;;4884588;28;90595;-76
2023/11/23 17:41:25;;;;;;;12.27;4.15;;;11.50;99.90;;;;;;4887331;28;89455;-76
2023/11/23 17:43:51;;;;;;;10.48;4.25;;;11.40;99.90;;;;;;4904645;28;88583;-77
2023/11/23 17:46:18;;;;;;;13.05;4.22;;;11.40;99.90;;;;;;4883793;28;88421;-76
2023/11/23 17:48:43;;;;;;;8.52;3.83;;;11.40;99.90;;;;;;4886247;28;91053;-76
2023/11/23 17:51:11;;;;;;;11.10;3.97;;;11.50;99.90;;;;;;4902274;28;88178;-77
2023/11/23 17:53:38;;;;;;;7.72;3.83;;;11.50;99.90;;;;;;4901784;28;88526;-76
2023/11/23 17:56:05;;;;;;;9.18;3.80;;;11.50;99.90;;;;;;4901208;28;88703;-76
2023/11/23 17:58:31;;;;;;;15.18;4.50;;;11.50;99.90;;;;;;4902923;28;87946;-76
2023/11/23 18:00:56;;;;;;;8.38;4.70;;;11.50;99.90;;;;;;4887153;28;91260;-75
2023/11/23 18:03:22;;;;;;;8.75;4.20;;;11.50;99.90;;;;;;4888995;28;89551;-76
2023/11/23 18:05:48;;;;;;;8.10;4.28;;;11.50;99.90;;;;;;4889802;28;88107;-76
2023/11/23 18:08:13;;;;;;;8.32;4.00;;;11.50;99.90;;;;;;4889944;28;88215;-76
2023/11/23 18:10:39;;;;;;;12.18;4.40;;;11.50;99.90;;;;;;4906122;28;88895;-76
2023/11/23 18:13:05;;;;;;;8.07;4.57;;;11.50;99.90;;;;;;4910856;28;91060;-75
2023/11/23 18:15:32;;;;;;;10.70;4.18;;;11.50;99.90;;;;;;4887342;28;88358;-76
2023/11/23 18:18:00;;;;;;;11.02;4.82;;;11.50;99.90;;;;;;4923879;28;88762;-76
2023/11/23 18:20:28;;;;;;;9.27;4.95;;;11.50;99.90;;;;;;4888334;28;92759;-75
2023/11/23 18:22:55;;;;;;;11.18;4.18;;;11.50;99.90;;;;;;4907208;28;90559;-77
2023/11/23 18:25:20;;;;;;;7.97;4.18;;;11.50;99.90;;;;;;4909776;28;88183;-76
2023/11/23 18:27:46;;;;;;;10.43;4.10;;;11.50;99.90;;;;;;4906570;28;87672;-76
2023/11/23 18:30:12;;;;;;;10.95;4.53;;;11.50;99.90;;;;;;4889969;28;91420;-76
2023/11/23 18:32:38;;;;;;;14.05;4.55;;;11.50;99.90;;;;;;4905305;28;88720;-76
2023/11/23 18:35:04;;;;;;;9.15;3.90;;;11.50;99.90;;;;;;4907087;28;87915;-76
2023/11/23 18:37:30;;;;;;;8.25;4.38;;;11.50;99.90;;;;;;4909515;28;87344;-77
2023/11/23 18:39:55;;;;;;;12.80;5.80;;;11.50;99.90;;;;;;4891890;28;90631;-77
2023/11/23 18:42:24;;;;;;;9.90;4.95;;;11.50;99.90;;;;;;4910234;28;88367;-76
2023/11/23 18:44:50;;;;;;;9.00;4.07;;;11.40;99.90;;;;;;4923316;28;88834;-75
2023/11/23 18:47:15;;;;;;;10.18;4.85;;;11.50;99.90;;;;;;4911223;28;88398;-76
2023/11/23 18:49:41;;;;;;;12.13;4.97;;;11.40;99.90;;;;;;4908670;28;88143;-76
2023/11/23 18:52:08;;;;;;;10.27;4.70;;;11.40;99.90;;;;;;4892058;28;90404;-76
2023/11/23 18:54:34;;;;;;;13.38;4.95;;;11.40;99.90;;;;;;4888421;28;87907;-76
2023/11/23 18:57:00;;;;;;;10.00;5.13;;;11.40;99.90;;;;;;4886912;28;90416;-76
2023/11/23 18:59:26;;;;;;;10.57;4.95;;;11.40;99.90;;;;;;4907250;28;88285;-75
2023/11/23 19:01:54;;;;;;;11.23;4.53;;;11.50;99.90;;;;;;4889323;28;90690;-76
2023/11/23 19:04:20;;;;;;;15.70;5.40;;;11.40;99.90;;;;;;4888596;28;88283;-76
2023/11/23 19:06:48;;;;;;;10.65;5.22;;;11.50;99.90;;;;;;4891661;28;89127;-75
2023/11/23 19:09:14;;;;;;;17.95;5.80;;;11.50;99.90;;;;;;4903196;28;89682;-76
2023/11/23 19:11:41;;;;;;;21.02;5.57;;;11.50;99.90;;;;;;4907096;28;88304;-76
2023/11/23 19:14:07;;;;;;;9.07;4.85;;;11.50;99.90;;;;;;4910027;28;88463;-76
2023/11/23 19:16:33;;;;;;;11.48;5.32;;;11.50;99.90;;;;;;4886310;28;91296;-76
2023/11/23 19:19:00;;;;;;;11.48;5.72;;;11.50;99.90;;;;;;4906059;28;88077;-77
2023/11/23 19:21:29;;;;;;;12.18;5.28;;;11.50;99.90;;;;;;4907712;28;87924;-77
2023/11/23 19:23:55;;;;;;;14.48;5.85;;;11.50;99.90;;;;;;4907240;28;87157;-76
2023/11/23 19:26:21;;;;;;;12.48;5.30;;;11.50;99.90;;;;;;4908008;28;89536;-77
2023/11/23 19:28:47;;;;;;;13.15;5.22;;;11.50;99.90;;;;;;4885215;28;90982;-77
2023/11/23 19:31:13;;;;;;;14.95;5.97;;;11.50;99.90;;;;;;4910264;28;89519;-77
2023/11/23 19:33:39;;;;;;;13.27;5.68;;;11.50;99.90;;;;;;4908926;28;88946;-76